createdAt,value
2022-10-28T00:01:08.264Z,14.71
2022-10-28T00:06:07.399Z,14.49
2022-10-28T00:11:09.534Z,14.63
2022-10-28T00:16:09.092Z,14.73
2022-10-28T00:21:08.606Z,14.71
2022-10-28T00:26:11.572Z,14.69
2022-10-28T00:31:09.935Z,14.45
2022-10-28T00:36:15.865Z,14.60
2022-10-28T00:41:16.668Z,14.52
2022-10-28T00:46:19.882Z,14.09
2022-10-28T00:51:22.813Z,14.22
2022-10-28T00:56:22.311Z,14.34
2022-10-28T01:01:19.182Z,14.03
2022-10-28T01:06:16.791Z,13.93
2022-10-28T01:11:49.762Z,14.06
2022-10-28T01:17:10.052Z,14.12
2022-10-28T01:22:20.460Z,13.96
2022-10-28T01:27:48.308Z,14.03
2022-10-28T01:32:56.346Z,13.79
2022-10-28T01:38:13.254Z,13.87
2022-10-28T01:43:15.469Z,13.48
2022-10-28T01:48:16.753Z,13.75
2022-10-28T01:53:17.105Z,13.44
2022-10-28T01:58:19.171Z,13.36
2022-10-28T02:03:17.712Z,13.67
2022-10-28T02:08:43.414Z,13.36
2022-10-28T02:13:51.602Z,13.57
2022-10-28T02:18:59.891Z,13.59
2022-10-28T02:24:02.608Z,13.47
2022-10-28T02:29:08.017Z,13.38
2022-10-28T02:34:09.950Z,13.21
2022-10-28T02:39:08.029Z,13.28
2022-10-28T02:44:08.597Z,13.19
2022-10-28T02:49:09.192Z,13.31
2022-10-28T02:54:10.001Z,13.33
2022-10-28T02:59:11.014Z,12.67
2022-10-28T03:04:08.751Z,12.85
2022-10-28T03:09:05.800Z,13.20
2022-10-28T03:14:04.131Z,13.18
2022-10-28T03:19:01.373Z,12.84
2022-10-28T03:23:59.027Z,12.97
2022-10-28T03:28:55.995Z,13.00
2022-10-28T03:33:52.968Z,12.91
2022-10-28T03:38:49.980Z,12.82
2022-10-28T03:43:48.171Z,12.57
2022-10-28T03:48:45.066Z,12.78
2022-10-28T03:53:41.873Z,12.54
2022-10-28T03:58:41.040Z,12.69
2022-10-28T04:03:41.379Z,12.80
2022-10-28T04:08:38.535Z,12.77
2022-10-28T04:13:37.659Z,12.75
2022-10-28T04:18:35.392Z,12.18
2022-10-28T04:23:33.206Z,12.67
2022-10-28T04:28:30.337Z,12.65
2022-10-28T04:33:29.400Z,12.69
2022-10-28T04:38:26.513Z,12.52
2022-10-28T04:43:24.309Z,12.68
2022-10-28T04:48:21.510Z,12.39
2022-10-28T04:53:18.434Z,12.00
2022-10-28T04:58:18.300Z,12.49
2022-10-28T05:03:16.107Z,12.52
2022-10-28T05:08:19.145Z,12.59
2022-10-28T05:13:26.136Z,12.10
2022-10-28T05:18:26.235Z,12.46
2022-10-28T05:23:28.641Z,12.13
2022-10-28T05:28:27.707Z,12.27
2022-10-28T05:33:25.540Z,12.67
2022-10-28T05:38:50.503Z,12.18
2022-10-28T05:43:47.745Z,12.91
2022-10-28T05:48:47.676Z,12.56
2022-10-28T05:53:44.661Z,12.89
2022-10-28T05:58:44.962Z,13.03
2022-10-28T06:03:42.078Z,12.98
2022-10-28T06:08:46.894Z,12.83
2022-10-28T06:13:57.237Z,13.10
2022-10-28T06:19:13.799Z,13.33
2022-10-28T06:24:16.445Z,13.56
2022-10-28T06:29:29.302Z,13.77
2022-10-28T06:34:37.448Z,13.62
2022-10-28T06:39:37.687Z,14.19
2022-10-28T06:44:35.071Z,14.09
2022-10-28T06:49:36.246Z,14.61
2022-10-28T06:54:33.243Z,14.81
2022-10-28T06:59:34.097Z,14.78
2022-10-28T07:04:38.638Z,14.58
2022-10-28T07:09:39.257Z,15.02
2022-10-28T07:14:44.574Z,14.88
2022-10-28T07:19:41.783Z,14.95
2022-10-28T07:24:43.371Z,15.73
2022-10-28T07:29:44.197Z,15.51
2022-10-28T07:34:44.356Z,16.00
2022-10-28T07:39:41.491Z,16.01
2022-10-28T07:44:39.394Z,15.74
2022-10-28T07:49:40.915Z,16.23
2022-10-28T07:54:38.499Z,16.25
2022-10-28T07:59:38.977Z,16.56
2022-10-28T08:04:39.785Z,16.35
2022-10-28T08:09:41.551Z,16.63
2022-10-28T08:14:42.812Z,16.91
2022-10-28T08:19:41.193Z,17.08
2022-10-28T08:24:41.501Z,16.98
2022-10-28T08:29:38.440Z,17.48
2022-10-28T08:34:37.948Z,17.51
2022-10-28T08:39:38.609Z,17.73
2022-10-28T08:45:22.453Z,17.73
2022-10-28T08:50:24.921Z,17.88
2022-10-28T08:55:35.900Z,17.62
2022-10-28T09:00:34.471Z,18.16
2022-10-28T09:05:34.676Z,18.25
2022-10-28T09:10:53.346Z,18.43
2022-10-28T09:16:07.435Z,18.60
2022-10-28T09:21:09.790Z,18.69
2022-10-28T09:26:19.837Z,18.66
2022-10-28T09:31:25.743Z,18.83
2022-10-28T09:36:28.700Z,18.80
2022-10-28T09:41:31.641Z,19.07
2022-10-28T09:46:34.625Z,19.09
2022-10-28T09:51:47.634Z,19.34
2022-10-28T09:56:46.440Z,19.15
2022-10-28T10:01:49.232Z,19.24
2022-10-28T10:06:52.286Z,19.20
2022-10-28T10:11:52.535Z,19.08
2022-10-28T10:16:58.815Z,19.61
2022-10-28T10:22:06.804Z,19.71
2022-10-28T10:27:26.527Z,19.67
2022-10-28T10:32:28.690Z,19.85
2022-10-28T10:37:27.661Z,19.89
2022-10-28T10:42:27.429Z,20.05
2022-10-28T10:47:24.379Z,20.28
2022-10-28T10:52:25.437Z,20.21
2022-10-28T10:57:26.265Z,20.83
2022-10-28T12:08:31.673Z,22.25
2022-10-28T12:13:40.708Z,22.74
2022-10-28T12:24:24.322Z,23.21
2022-10-28T12:29:33.479Z,22.89
2022-10-28T12:35:01.238Z,23.19
2022-10-28T12:40:06.396Z,22.71
2022-10-28T12:45:13.588Z,23.34
2022-10-28T12:50:20.352Z,23.11
2022-10-28T12:55:31.344Z,23.18
2022-10-28T13:00:35.266Z,23.34
2022-10-28T13:05:43.309Z,23.08
2022-10-28T13:10:47.968Z,22.86
2022-10-28T13:16:16.680Z,23.06
2022-10-28T13:21:28.647Z,22.73
2022-10-28T13:26:30.627Z,22.51
2022-10-28T13:31:42.071Z,22.26
2022-10-28T13:36:42.355Z,22.08
2022-10-28T13:41:49.312Z,22.13
2022-10-28T13:47:25.917Z,21.40
2022-10-28T13:52:29.922Z,21.65
2022-10-28T13:58:04.024Z,21.88
2022-10-28T14:03:03.212Z,21.22
2022-10-28T14:08:02.360Z,21.52
2022-10-28T14:13:08.052Z,21.40
2022-10-28T14:18:42.488Z,21.33
2022-10-28T14:24:09.440Z,21.17
2022-10-28T14:29:31.533Z,21.04
2022-10-28T14:34:43.095Z,20.80
2022-10-28T14:39:58.328Z,20.80
2022-10-28T14:45:06.922Z,20.61
2022-10-28T14:50:14.994Z,20.32
2022-10-28T14:55:22.426Z,19.96
2022-10-28T15:00:25.356Z,19.97
2022-10-28T15:05:24.163Z,19.40
2022-10-28T15:10:27.270Z,19.54
2022-10-28T15:15:26.157Z,18.97
2022-10-28T15:20:27.699Z,19.37
2022-10-28T15:25:25.125Z,19.18
2022-10-28T15:30:25.974Z,18.89
2022-10-28T15:35:39.254Z,18.62
2022-10-28T15:40:39.518Z,18.10
2022-10-28T15:45:42.314Z,18.30
2022-10-28T15:50:43.078Z,17.45
2022-10-28T15:56:02.943Z,17.76
2022-10-28T16:00:59.205Z,17.54
2022-10-28T16:05:57.550Z,17.84
2022-10-28T16:11:15.537Z,17.57
2022-10-28T16:16:27.804Z,16.99
2022-10-28T16:21:30.488Z,16.82
2022-10-28T16:26:29.615Z,17.37
2022-10-28T16:31:30.468Z,17.28
2022-10-28T16:36:27.939Z,17.18
2022-10-28T16:41:30.151Z,16.74
2022-10-28T16:46:29.260Z,16.61
2022-10-28T16:51:31.202Z,16.72
2022-10-28T16:56:28.228Z,16.64
2022-10-28T17:01:25.446Z,16.74
2022-10-28T17:06:25.859Z,16.68
2022-10-28T17:11:22.989Z,16.58
2022-10-28T17:16:19.932Z,16.30
2022-10-28T17:21:16.751Z,16.17
2022-10-28T17:26:14.325Z,15.78
2022-10-28T17:31:13.003Z,16.05
2022-10-28T17:36:12.621Z,16.31
2022-10-28T17:41:09.779Z,16.08
2022-10-28T17:46:08.680Z,16.02
2022-10-28T17:51:06.105Z,15.98
2022-10-28T17:56:05.325Z,16.09
2022-10-28T18:01:07.816Z,16.05
2022-10-28T18:06:06.412Z,16.00
2022-10-28T18:11:04.524Z,15.94
2022-10-28T18:16:04.530Z,15.78
2022-10-28T18:21:02.529Z,15.86
2022-10-28T18:26:00.430Z,15.68
2022-10-28T18:31:01.376Z,15.60
2022-10-28T18:35:58.684Z,15.44
2022-10-28T18:40:56.394Z,15.64
2022-10-28T18:45:53.821Z,15.32
2022-10-28T18:50:56.510Z,15.52
2022-10-28T18:55:53.782Z,15.19
2022-10-28T19:00:52.479Z,15.41
2022-10-28T19:05:50.081Z,15.08
2022-10-28T19:10:48.028Z,15.43
2022-10-28T19:15:48.234Z,15.44
2022-10-28T19:20:47.390Z,15.39
2022-10-28T19:25:53.818Z,14.90
2022-10-28T19:31:00.932Z,14.56
2022-10-28T19:36:13.844Z,14.61
2022-10-28T19:41:12.569Z,14.88
2022-10-28T19:46:13.105Z,15.15
2022-10-28T19:51:13.651Z,14.69
2022-10-28T19:56:21.359Z,14.95
2022-10-28T20:01:19.521Z,14.98
2022-10-28T20:06:19.070Z,14.42
2022-10-28T20:11:23.100Z,14.73
2022-10-28T20:16:25.380Z,14.85
2022-10-28T20:21:27.099Z,14.73
2022-10-28T20:26:25.673Z,14.70
2022-10-28T20:31:24.921Z,14.50
2022-10-28T20:36:24.633Z,14.33
2022-10-28T20:41:22.341Z,14.47
2022-10-28T20:46:20.332Z,14.33
2022-10-28T20:51:19.360Z,14.53
2022-10-28T20:56:18.664Z,14.08
2022-10-28T21:01:18.381Z,14.36
2022-10-28T21:06:16.939Z,14.46
2022-10-28T21:11:16.086Z,14.34
2022-10-28T21:16:13.745Z,14.34
2022-10-28T21:21:11.628Z,14.25
2022-10-28T21:26:11.094Z,13.93
2022-10-28T21:31:10.145Z,13.96
2022-10-28T21:36:11.831Z,14.19
2022-10-28T21:41:11.664Z,13.78
2022-10-28T21:46:09.756Z,14.00
2022-10-28T21:51:13.421Z,14.05
2022-10-28T21:56:17.608Z,13.68
2022-10-28T22:01:17.233Z,13.88
2022-10-28T22:06:15.103Z,13.68
2022-10-28T22:11:14.526Z,13.54
2022-10-28T22:16:12.871Z,13.78
2022-10-28T22:21:11.479Z,13.89
2022-10-28T22:26:11.144Z,13.78
2022-10-28T22:31:10.123Z,13.85
2022-10-28T22:36:09.434Z,13.81
2022-10-28T22:41:11.417Z,13.63
2022-10-28T22:46:09.333Z,13.61
2022-10-28T22:51:06.670Z,13.60
2022-10-28T22:56:06.483Z,13.51
2022-10-28T23:01:09.474Z,13.47
2022-10-28T23:06:07.593Z,13.32
2022-10-28T23:11:05.110Z,13.48
2022-10-28T23:16:06.114Z,13.02
2022-10-28T23:21:08.091Z,13.06
2022-10-28T23:26:05.541Z,13.39
2022-10-28T23:31:03.553Z,13.29
2022-10-28T23:36:03.119Z,13.32
2022-10-28T23:41:01.959Z,13.15
2022-10-28T23:45:59.270Z,13.32
2022-10-28T23:50:57.052Z,12.98
2022-10-28T23:55:54.073Z,13.04
